Time;durP1;ratioP1;P1;durP2;ratioP2;P2;SDS_P1;SDS_P2;PMS_P1;PMS_P2;Temp;Humidity;BMP_temperature;BMP_pressure;BME280_temperature;BME280_humidity;BME280_pressure;Samples;Min_cycle;Max_cycle;Signal;HPM_P1;HPM_P2
2021/11/21 00:01:28;;;;;;;42.53;17.07;;;;;;;;;;5100003;28;20211;-73
2021/11/21 00:03:56;;;;;;;38.70;18.00;;;;;;;;;;5099702;28;20210;-73
2021/11/21 00:06:24;;;;;;;34.27;15.87;;;;;;;;;;5099978;28;20212;-73
2021/11/21 00:08:52;;;;;;;48.37;18.10;;;;;;;;;;5099637;28;20589;-73
2021/11/21 00:11:21;;;;;;;46.17;17.97;;;;;;;;;;5099643;28;20570;-73
2021/11/21 00:13:51;;;;;;;39.13;16.10;;;;;;;;;;5099615;28;20237;-73
2021/11/21 00:16:19;;;;;;;48.83;20.07;;;;;;;;;;5099645;28;20206;-73
2021/11/21 00:18:47;;;;;;;47.83;18.80;;;;;;;;;;5099856;28;20251;-73
2021/11/21 00:21:15;;;;;;;47.67;18.17;;;;;;;;;;5099308;28;20228;-73
2021/11/21 00:23:43;;;;;;;44.37;18.30;;;;;;;;;;5099673;28;20213;-73
2021/11/21 00:26:11;;;;;;;46.13;17.60;;;;;;;;;;5099728;28;20216;-73
2021/11/21 00:28:39;;;;;;;45.20;17.73;;;;;;;;;;5098882;28;20674;-73
2021/11/21 00:31:09;;;;;;;45.43;17.97;;;;;;;;;;5099377;28;20205;-73
2021/11/21 00:33:37;;;;;;;53.57;20.77;;;;;;;;;;5099152;28;20209;-73
2021/11/21 00:36:05;;;;;;;43.63;17.77;;;;;;;;;;5099143;28;20247;-73
2021/11/21 00:38:33;;;;;;;53.07;18.23;;;;;;;;;;5099332;28;20229;-73
2021/11/21 00:41:01;;;;;;;47.67;18.63;;;;;;;;;;5086074;28;20656;-72
2021/11/21 00:43:29;;;;;;;51.77;20.30;;;;;;;;;;5098294;28;20233;-73
2021/11/21 00:45:57;;;;;;;49.97;18.10;;;;;;;;;;5099388;28;20210;-73
2021/11/21 00:48:26;;;;;;;52.77;19.03;;;;;;;;;;5098868;28;20221;-73
2021/11/21 00:50:56;;;;;;;45.20;18.10;;;;;;;;;;5098741;28;20664;-73
2021/11/21 00:53:24;;;;;;;46.63;17.97;;;;;;;;;;5099171;28;20216;-73
2021/11/21 00:55:54;;;;;;;48.63;17.93;;;;;;;;;;5099139;28;20202;-73
2021/11/21 00:58:22;;;;;;;44.80;18.13;;;;;;;;;;5094604;28;20581;-73
2021/11/21 01:00:51;;;;;;;43.57;18.87;;;;;;;;;;5098823;28;20204;-73
2021/11/21 01:03:20;;;;;;;40.97;17.60;;;;;;;;;;5098595;28;20383;-73
2021/11/21 01:05:50;;;;;;;46.20;19.00;;;;;;;;;;5098597;28;20648;-73
2021/11/21 01:08:19;;;;;;;50.27;19.30;;;;;;;;;;5098681;28;20264;-73
2021/11/21 01:10:48;;;;;;;43.80;18.10;;;;;;;;;;5098284;28;20592;-73
2021/11/21 01:13:16;;;;;;;52.03;18.63;;;;;;;;;;5098293;28;20201;-73
2021/11/21 01:15:44;;;;;;;57.60;19.33;;;;;;;;;;5098799;28;20209;-73
2021/11/21 01:18:12;;;;;;;43.83;19.57;;;;;;;;;;5098584;28;20229;-73
2021/11/21 01:20:41;;;;;;;44.10;18.73;;;;;;;;;;5098201;28;20198;-73
2021/11/21 01:23:12;;;;;;;44.57;17.87;;;;;;;;;;5098391;28;20274;-73
2021/11/21 01:25:40;;;;;;;50.30;18.13;;;;;;;;;;5098527;28;20288;-73
2021/11/21 01:28:08;;;;;;;42.83;17.50;;;;;;;;;;5097822;28;20598;-73
2021/11/21 01:30:37;;;;;;;40.27;18.03;;;;;;;;;;5097900;28;20233;-73
2021/11/21 01:33:05;;;;;;;40.93;17.43;;;;;;;;;;5098060;28;20215;-73
2021/11/21 01:35:33;;;;;;;40.43;17.83;;;;;;;;;;5097739;28;20205;-73
2021/11/21 01:38:02;;;;;;;44.43;18.57;;;;;;;;;;5098259;28;20240;-73
2021/11/21 01:40:31;;;;;;;46.23;17.77;;;;;;;;;;5093016;28;20575;-73
2021/11/21 01:42:59;;;;;;;43.63;17.73;;;;;;;;;;5097687;28;20273;-73
2021/11/21 01:45:27;;;;;;;49.27;18.10;;;;;;;;;;5097988;28;20213;-73
2021/11/21 01:47:55;;;;;;;41.97;17.20;;;;;;;;;;5097909;28;20312;-72
2021/11/21 01:50:25;;;;;;;45.07;18.00;;;;;;;;;;5097621;28;20222;-73
2021/11/21 01:52:53;;;;;;;42.43;17.33;;;;;;;;;;5097913;28;20588;-73
2021/11/21 01:55:21;;;;;;;45.53;18.67;;;;;;;;;;5097320;28;20216;-73
2021/11/21 01:57:52;;;;;;;46.97;18.33;;;;;;;;;;5097319;28;20201;-73
2021/11/21 02:00:20;;;;;;;42.50;16.93;;;;;;;;;;5097618;28;20209;-73
2021/11/21 02:02:48;;;;;;;40.57;17.73;;;;;;;;;;5097712;28;20284;-73
2021/11/21 02:05:16;;;;;;;50.37;17.73;;;;;;;;;;5097584;28;20702;-72
2021/11/21 02:07:47;;;;;;;39.00;16.07;;;;;;;;;;5097970;28;20209;-72
2021/11/21 02:10:16;;;;;;;45.43;18.20;;;;;;;;;;5097658;28;20225;-72
2021/11/21 02:12:44;;;;;;;47.03;17.30;;;;;;;;;;5097428;28;20205;-73
2021/11/21 02:15:15;;;;;;;53.27;17.47;;;;;;;;;;5097985;28;20205;-73
2021/11/21 02:17:44;;;;;;;45.17;18.17;;;;;;;;;;5097645;28;20219;-73
2021/11/21 02:20:15;;;;;;;40.77;16.83;;;;;;;;;;5097603;28;20668;-73
2021/11/21 02:22:45;;;;;;;42.90;18.03;;;;;;;;;;5097247;28;20205;-73
2021/11/21 02:25:13;;;;;;;39.30;16.40;;;;;;;;;;5097704;28;20216;-73
2021/11/21 02:27:41;;;;;;;46.47;16.67;;;;;;;;;;5097284;28;20215;-73
2021/11/21 02:30:10;;;;;;;40.47;15.80;;;;;;;;;;5097519;28;20231;-73
2021/11/21 02:32:44;;;;;;;42.97;17.73;;;;;;;;;;5097781;28;20216;-73
2021/11/21 02:35:12;;;;;;;41.07;16.13;;;;;;;;;;5097603;28;20211;-73
2021/11/21 02:37:40;;;;;;;38.70;16.03;;;;;;;;;;5097176;28;20703;-74
2021/11/21 02:40:11;;;;;;;42.67;17.00;;;;;;;;;;5097661;28;20209;-73
2021/11/21 02:42:39;;;;;;;33.40;15.60;;;;;;;;;;5096964;28;20685;-73
2021/11/21 02:45:09;;;;;;;42.57;17.33;;;;;;;;;;5097397;28;20210;-73
2021/11/21 02:47:37;;;;;;;37.73;15.77;;;;;;;;;;5097687;28;20206;-73
2021/11/21 02:50:07;;;;;;;30.97;15.07;;;;;;;;;;5096810;28;20206;-73
2021/11/21 02:52:35;;;;;;;38.60;13.90;;;;;;;;;;5097596;28;20214;-73
2021/11/21 02:55:03;;;;;;;36.27;14.70;;;;;;;;;;5097489;28;20219;-73
2021/11/21 02:57:33;;;;;;;29.73;15.50;;;;;;;;;;5097180;28;20202;-73
2021/11/21 03:00:01;;;;;;;36.73;14.10;;;;;;;;;;5097044;28;20241;-73
2021/11/21 03:02:29;;;;;;;37.47;14.80;;;;;;;;;;5097464;28;20210;-73
2021/11/21 03:04:57;;;;;;;45.17;16.27;;;;;;;;;;5096886;28;20209;-73
2021/11/21 03:07:25;;;;;;;38.40;15.97;;;;;;;;;;5100148;28;20288;-73
2021/11/21 03:09:53;;;;;;;38.43;15.80;;;;;;;;;;5101089;28;20722;-73
2021/11/21 03:12:23;;;;;;;39.27;15.13;;;;;;;;;;5100823;28;20225;-73
2021/11/21 03:14:53;;;;;;;36.40;16.10;;;;;;;;;;5100994;28;20206;-73
2021/11/21 03:17:21;;;;;;;42.33;16.67;;;;;;;;;;5101019;28;20227;-73
2021/11/21 03:19:50;;;;;;;34.50;14.63;;;;;;;;;;5100713;28;20232;-73
2021/11/21 03:22:18;;;;;;;39.80;15.40;;;;;;;;;;5100788;28;20653;-73
2021/11/21 03:24:46;;;;;;;35.47;14.53;;;;;;;;;;5100803;28;20211;-73
2021/11/21 03:27:14;;;;;;;37.47;14.70;;;;;;;;;;5100561;28;20202;-73
2021/11/21 03:29:42;;;;;;;33.97;14.23;;;;;;;;;;5100440;28;20244;-73
2021/11/21 03:32:12;;;;;;;41.53;15.13;;;;;;;;;;5100614;28;20229;-73
2021/11/21 03:34:40;;;;;;;39.43;15.03;;;;;;;;;;5100652;28;20205;-73
2021/11/21 03:37:08;;;;;;;35.97;15.37;;;;;;;;;;5100464;28;20216;-73
2021/11/21 03:39:36;;;;;;;35.83;15.37;;;;;;;;;;5100417;28;20230;-73
2021/11/21 03:42:04;;;;;;;36.13;14.57;;;;;;;;;;5100176;28;20202;-73
2021/11/21 03:44:33;;;;;;;36.57;15.07;;;;;;;;;;5100277;28;20237;-72
2021/11/21 03:47:01;;;;;;;34.53;14.37;;;;;;;;;;5100257;28;20206;-73
2021/11/21 03:49:30;;;;;;;34.23;14.70;;;;;;;;;;5100084;28;20599;-73
2021/11/21 03:51:58;;;;;;;38.23;14.47;;;;;;;;;;5099792;28;20221;-73
2021/11/21 03:54:27;;;;;;;36.87;13.83;;;;;;;;;;5100286;28;20220;-73
2021/11/21 03:56:55;;;;;;;35.87;14.53;;;;;;;;;;5099130;28;20202;-73
2021/11/21 03:59:23;;;;;;;38.57;14.37;;;;;;;;;;5107660;28;20221;-72
2021/11/21 04:01:54;;;;;;;33.80;14.13;;;;;;;;;;5107563;28;20744;-72
2021/11/21 04:04:23;;;;;;;37.67;14.80;;;;;;;;;;5106087;28;20198;-72
2021/11/21 04:06:53;;;;;;;34.70;14.60;;;;;;;;;;5109482;28;20200;-72
2021/11/21 04:09:21;;;;;;;34.23;14.33;;;;;;;;;;5109508;28;20220;-73
2021/11/21 04:11:49;;;;;;;33.57;12.80;;;;;;;;;;5107352;28;20217;-72
2021/11/21 04:14:17;;;;;;;35.13;14.70;;;;;;;;;;5109014;28;20207;-72
2021/11/21 04:16:45;;;;;;;31.03;13.17;;;;;;;;;;5105655;28;20198;-72
2021/11/21 04:19:14;;;;;;;37.37;16.67;;;;;;;;;;5108088;28;20216;-72
2021/11/21 04:21:42;;;;;;;36.33;14.40;;;;;;;;;;5107352;28;20203;-72
2021/11/21 04:24:13;;;;;;;30.23;13.07;;;;;;;;;;5086963;28;20241;-73
2021/11/21 04:26:43;;;;;;;31.20;14.50;;;;;;;;;;5086297;28;20198;-72
2021/11/21 04:29:11;;;;;;;31.87;13.17;;;;;;;;;;5089156;28;20232;-72
2021/11/21 04:31:39;;;;;;;32.67;13.80;;;;;;;;;;5086664;28;20301;-72
2021/11/21 04:34:07;;;;;;;33.77;13.97;;;;;;;;;;5085035;28;20292;-72
2021/11/21 04:36:35;;;;;;;31.17;13.83;;;;;;;;;;5085930;28;20565;-72
2021/11/21 04:39:04;;;;;;;29.03;12.90;;;;;;;;;;5087120;28;20712;-72
2021/11/21 04:41:33;;;;;;;36.67;13.80;;;;;;;;;;5086079;28;20198;-72
2021/11/21 04:44:02;;;;;;;28.97;13.07;;;;;;;;;;5084475;28;20243;-72
2021/11/21 04:46:30;;;;;;;36.90;14.20;;;;;;;;;;5085562;28;20297;-72
2021/11/21 04:48:58;;;;;;;30.57;13.20;;;;;;;;;;5083058;28;20218;-72
2021/11/21 04:51:26;;;;;;;32.63;13.67;;;;;;;;;;5085864;28;20225;-72
2021/11/21 04:53:54;;;;;;;30.50;13.60;;;;;;;;;;5085496;28;20198;-72
2021/11/21 04:56:22;;;;;;;33.67;13.97;;;;;;;;;;5085671;28;20221;-72
2021/11/21 04:58:52;;;;;;;31.73;13.17;;;;;;;;;;5087688;28;20700;-72
2021/11/21 05:01:20;;;;;;;37.40;12.73;;;;;;;;;;5098084;28;20817;-72
2021/11/21 05:03:48;;;;;;;28.57;13.13;;;;;;;;;;5098379;28;20297;-72
2021/11/21 05:06:16;;;;;;;33.47;13.30;;;;;;;;;;5098746;28;20538;-72
2021/11/21 05:08:44;;;;;;;35.43;12.77;;;;;;;;;;5098798;28;20251;-72
2021/11/21 05:11:12;;;;;;;27.83;13.27;;;;;;;;;;5098285;28;20580;-72
2021/11/21 05:13:40;;;;;;;31.20;12.53;;;;;;;;;;5098161;28;20206;-73
2021/11/21 05:16:09;;;;;;;31.57;12.67;;;;;;;;;;5098422;28;20213;-73
2021/11/21 05:18:37;;;;;;;25.40;12.07;;;;;;;;;;5098409;28;20697;-73
2021/11/21 05:21:05;;;;;;;28.83;13.70;;;;;;;;;;5098672;28;20205;-72
2021/11/21 05:23:34;;;;;;;27.53;13.77;;;;;;;;;;5098488;28;20212;-73
2021/11/21 05:26:02;;;;;;;29.17;13.33;;;;;;;;;;5098076;28;20878;-72
2021/11/21 05:28:30;;;;;;;27.87;12.53;;;;;;;;;;5096142;28;20968;-71
2021/11/21 05:30:57;;;;;;;33.00;12.87;;;;;;;;;;5094296;28;20209;-72
2021/11/21 05:33:27;;;;;;;24.80;12.20;;;;;;;;;;5093414;28;20487;-73
2021/11/21 05:35:55;;;;;;;32.33;12.93;;;;;;;;;;5095626;28;20438;-72
2021/11/21 05:38:23;;;;;;;32.70;13.63;;;;;;;;;;5096150;28;20534;-72
2021/11/21 05:40:51;;;;;;;27.33;12.83;;;;;;;;;;5096219;28;20436;-72
2021/11/21 05:43:19;;;;;;;31.83;11.80;;;;;;;;;;5095303;28;20464;-72
2021/11/21 05:45:47;;;;;;;30.07;11.43;;;;;;;;;;5096256;28;20444;-72
2021/11/21 05:48:15;;;;;;;27.03;12.50;;;;;;;;;;5096053;28;20477;-73
2021/11/21 05:50:45;;;;;;;33.83;14.07;;;;;;;;;;5095976;28;20440;-72
2021/11/21 05:53:12;;;;;;;30.47;12.90;;;;;;;;;;5095913;28;20478;-72
2021/11/21 05:55:40;;;;;;;26.13;12.57;;;;;;;;;;5095843;28;20442;-72
2021/11/21 05:58:09;;;;;;;32.20;11.73;;;;;;;;;;5095926;28;20463;-72
2021/11/21 06:00:37;;;;;;;30.17;12.77;;;;;;;;;;5096268;28;20440;-72
2021/11/21 06:03:05;;;;;;;33.13;13.40;;;;;;;;;;5096479;28;20443;-72
2021/11/21 06:05:33;;;;;;;28.43;12.90;;;;;;;;;;5096260;28;20840;-72
2021/11/21 06:08:06;;;;;;;28.63;13.23;;;;;;;;;;5096450;28;20526;-72
2021/11/21 06:10:34;;;;;;;25.17;11.30;;;;;;;;;;5093667;28;20799;-72
2021/11/21 06:13:02;;;;;;;26.37;12.47;;;;;;;;;;5096079;28;20228;-72
2021/11/21 06:15:30;;;;;;;22.27;10.73;;;;;;;;;;5096298;28;20257;-72
2021/11/21 06:17:58;;;;;;;22.87;11.83;;;;;;;;;;5095791;28;20221;-72
2021/11/21 06:20:26;;;;;;;26.10;11.30;;;;;;;;;;5096272;28;20281;-73
2021/11/21 06:22:54;;;;;;;20.93;9.73;;;;;;;;;;5096359;28;20193;-73
2021/11/21 06:25:24;;;;;;;25.80;12.23;;;;;;;;;;5096323;28;20199;-72
2021/11/21 06:27:52;;;;;;;18.23;9.53;;;;;;;;;;5095908;28;20201;-72
2021/11/21 06:30:20;;;;;;;28.50;11.17;;;;;;;;;;5096968;28;20197;-69
2021/11/21 06:32:48;;;;;;;25.10;10.50;;;;;;;;;;5097070;28;20228;-71
2021/11/21 06:35:16;;;;;;;21.43;10.67;;;;;;;;;;5097134;28;20201;-71
2021/11/21 06:37:44;;;;;;;20.70;10.40;;;;;;;;;;5097461;28;20244;-71
2021/11/21 06:40:13;;;;;;;21.77;9.37;;;;;;;;;;5097378;28;20553;-71
2021/11/21 06:42:43;;;;;;;31.70;11.60;;;;;;;;;;5100612;28;20237;-72
2021/11/21 06:45:11;;;;;;;26.67;11.40;;;;;;;;;;5101305;28;20212;-71
2021/11/21 06:47:39;;;;;;;23.63;10.20;;;;;;;;;;5101592;28;20205;-71
2021/11/21 06:50:08;;;;;;;21.77;9.87;;;;;;;;;;5101492;28;20448;-70
2021/11/21 06:52:36;;;;;;;22.03;10.67;;;;;;;;;;5101408;28;20504;-70
2021/11/21 06:55:05;;;;;;;20.67;10.03;;;;;;;;;;5101416;28;20435;-70
2021/11/21 06:57:34;;;;;;;23.53;10.67;;;;;;;;;;5101055;28;20443;-70
2021/11/21 07:00:05;;;;;;;24.57;10.67;;;;;;;;;;5101196;28;20502;-70
2021/11/21 07:02:33;;;;;;;23.73;10.03;;;;;;;;;;5101463;28;20212;-70
2021/11/21 07:05:01;;;;;;;21.60;10.57;;;;;;;;;;5100932;28;20209;-70
2021/11/21 07:07:29;;;;;;;24.50;10.90;;;;;;;;;;5101125;28;20211;-70
2021/11/21 07:09:57;;;;;;;24.90;11.77;;;;;;;;;;5098388;28;20253;-73
2021/11/21 07:12:25;;;;;;;23.63;10.73;;;;;;;;;;5086121;28;20198;-69
2021/11/21 07:15:11;;;;;;;27.23;11.23;;;;;;;;;;5086502;28;20679;-69
2021/11/21 07:17:39;;;;;;;21.07;10.43;;;;;;;;;;5097933;28;20208;-67
2021/11/21 07:20:14;;;;;;;26.20;11.73;;;;;;;;;;5100825;28;20292;-70
2021/11/21 07:22:43;;;;;;;24.30;10.57;;;;;;;;;;5100621;28;20289;-69
2021/11/21 07:25:12;;;;;;;28.03;10.97;;;;;;;;;;5100797;28;20216;-68
2021/11/21 07:27:41;;;;;;;25.77;12.10;;;;;;;;;;5096394;28;20198;-69
2021/11/21 07:30:09;;;;;;;18.77;9.60;;;;;;;;;;5100240;28;20284;-67
2021/11/21 07:32:39;;;;;;;21.70;10.07;;;;;;;;;;5100224;28;20231;-66
2021/11/21 07:35:07;;;;;;;20.43;10.50;;;;;;;;;;5090898;28;20273;-66
2021/11/21 07:37:35;;;;;;;15.50;9.50;;;;;;;;;;5100510;28;20284;-66
2021/11/21 07:40:04;;;;;;;24.63;11.30;;;;;;;;;;5100014;28;20716;-65
2021/11/21 07:42:32;;;;;;;20.33;9.73;;;;;;;;;;5099481;28;20209;-65
2021/11/21 07:45:00;;;;;;;22.73;10.93;;;;;;;;;;5098139;28;20209;-65
2021/11/21 07:47:28;;;;;;;18.03;9.63;;;;;;;;;;5098941;28;20201;-65
2021/11/21 07:49:58;;;;;;;22.33;10.77;;;;;;;;;;5099854;28;20225;-65
2021/11/21 07:52:26;;;;;;;17.97;9.73;;;;;;;;;;5099108;28;20220;-65
2021/11/21 07:54:54;;;;;;;20.13;10.60;;;;;;;;;;5099654;28;20221;-65
2021/11/21 07:57:22;;;;;;;19.07;10.00;;;;;;;;;;5095145;28;20206;-66
2021/11/21 07:59:50;;;;;;;31.47;11.90;;;;;;;;;;5089158;28;20223;-65
2021/11/21 08:02:18;;;;;;;22.30;11.10;;;;;;;;;;5087574;28;20199;-66
2021/11/21 08:04:46;;;;;;;22.53;10.73;;;;;;;;;;5087017;28;20191;-67
2021/11/21 08:07:15;;;;;;;22.03;10.93;;;;;;;;;;5088422;28;20687;-67
2021/11/21 08:09:43;;;;;;;21.97;12.07;;;;;;;;;;5099839;28;20232;-70
2021/11/21 08:12:12;;;;;;;19.97;11.37;;;;;;;;;;5097737;28;20241;-66
2021/11/21 08:14:40;;;;;;;29.17;12.83;;;;;;;;;;5089015;28;20224;-66
2021/11/21 08:17:07;;;;;;;24.43;11.77;;;;;;;;;;5085331;28;20202;-66
2021/11/21 08:19:35;;;;;;;22.93;11.63;;;;;;;;;;5084384;28;20340;-66
2021/11/21 08:22:03;;;;;;;22.50;11.50;;;;;;;;;;5086679;28;20205;-67
2021/11/21 08:24:33;;;;;;;23.53;12.70;;;;;;;;;;5087045;28;20712;-68
2021/11/21 08:27:01;;;;;;;22.03;11.00;;;;;;;;;;5102490;28;20201;-67
2021/11/21 08:29:29;;;;;;;28.50;12.00;;;;;;;;;;5093394;28;20222;-68
2021/11/21 08:31:58;;;;;;;24.93;12.33;;;;;;;;;;5099179;28;20258;-68
2021/11/21 08:34:28;;;;;;;28.53;13.30;;;;;;;;;;5098987;28;20221;-67
2021/11/21 08:36:56;;;;;;;26.40;12.83;;;;;;;;;;5098940;28;20202;-68
2021/11/21 08:39:24;;;;;;;26.93;14.00;;;;;;;;;;5098804;28;20880;-67
2021/11/21 08:41:54;;;;;;;26.77;14.33;;;;;;;;;;5098681;28;20448;-67
2021/11/21 08:44:22;;;;;;;26.93;13.83;;;;;;;;;;5098502;28;20475;-67
2021/11/21 08:46:51;;;;;;;28.77;12.53;;;;;;;;;;5092923;28;20512;-68
2021/11/21 08:49:19;;;;;;;24.53;12.80;;;;;;;;;;5095173;28;20471;-67
2021/11/21 08:51:48;;;;;;;28.00;14.10;;;;;;;;;;5098703;28;20534;-68
2021/11/21 08:54:16;;;;;;;26.47;12.57;;;;;;;;;;5098346;28;20724;-68
2021/11/21 08:56:44;;;;;;;26.37;13.73;;;;;;;;;;5098191;28;20308;-68
2021/11/21 08:59:13;;;;;;;31.00;13.70;;;;;;;;;;5098431;28;20229;-68
2021/11/21 09:01:42;;;;;;;30.03;14.50;;;;;;;;;;5098581;28;20227;-67
2021/11/21 09:04:11;;;;;;;30.67;14.00;;;;;;;;;;5098467;28;20206;-67
2021/11/21 09:06:39;;;;;;;31.40;14.00;;;;;;;;;;5098743;28;20237;-68
2021/11/21 09:09:07;;;;;;;24.97;13.33;;;;;;;;;;5098482;28;20222;-67
2021/11/21 09:11:36;;;;;;;28.53;13.27;;;;;;;;;;5098248;28;20244;-68
2021/11/21 09:14:04;;;;;;;28.83;13.33;;;;;;;;;;5098311;28;20598;-68
2021/11/21 09:16:33;;;;;;;25.10;13.07;;;;;;;;;;5097927;28;20695;-68
2021/11/21 09:19:02;;;;;;;30.20;14.20;;;;;;;;;;5098245;28;20577;-68
2021/11/21 09:21:30;;;;;;;25.57;12.70;;;;;;;;;;5098041;28;20642;-68
2021/11/21 09:23:58;;;;;;;25.23;13.27;;;;;;;;;;5098106;28;20305;-68
2021/11/21 09:26:26;;;;;;;32.93;12.90;;;;;;;;;;5098098;28;20277;-68
2021/11/21 09:28:54;;;;;;;29.07;13.03;;;;;;;;;;5097997;28;20300;-67
2021/11/21 09:31:22;;;;;;;30.80;14.07;;;;;;;;;;5098470;28;20210;-68
2021/11/21 09:33:52;;;;;;;29.60;14.10;;;;;;;;;;5098126;28;20271;-68
2021/11/21 09:36:20;;;;;;;29.67;14.17;;;;;;;;;;5098463;28;20217;-69
2021/11/21 09:38:48;;;;;;;28.73;15.10;;;;;;;;;;5098201;28;20290;-69
2021/11/21 09:41:17;;;;;;;26.80;13.77;;;;;;;;;;5098091;28;20288;-69
2021/11/21 09:43:45;;;;;;;33.47;13.57;;;;;;;;;;5097787;28;20269;-70
2021/11/21 09:46:14;;;;;;;32.97;14.10;;;;;;;;;;5098455;28;20244;-69
2021/11/21 09:48:42;;;;;;;27.87;13.73;;;;;;;;;;5098095;28;20252;-69
2021/11/21 09:51:12;;;;;;;27.73;14.03;;;;;;;;;;5097777;28;20214;-70
2021/11/21 09:53:40;;;;;;;26.60;13.83;;;;;;;;;;5098076;28;20364;-69
2021/11/21 09:56:08;;;;;;;25.73;14.43;;;;;;;;;;5098211;28;20201;-70
2021/11/21 09:58:36;;;;;;;30.57;15.07;;;;;;;;;;5097474;28;20225;-69
2021/11/21 10:01:04;;;;;;;25.33;13.90;;;;;;;;;;5097987;28;20237;-70
2021/11/21 10:03:33;;;;;;;27.60;14.33;;;;;;;;;;5097901;28;20212;-68
2021/11/21 10:06:06;;;;;;;27.50;14.03;;;;;;;;;;5097728;28;20205;-69
2021/11/21 10:08:42;;;;;;;30.63;13.60;;;;;;;;;;5102409;28;20252;-67
2021/11/21 10:11:09;;;;;;;26.07;13.80;;;;;;;;;;5111513;28;20203;-66
2021/11/21 10:13:40;;;;;;;29.33;14.90;;;;;;;;;;5098123;28;20568;-66
2021/11/21 10:16:27;;;;;;;31.13;14.93;;;;;;;;;;5097175;28;20229;-66
2021/11/21 10:18:56;;;;;;;29.80;15.13;;;;;;;;;;5100372;28;20269;-68
2021/11/21 10:21:25;;;;;;;30.90;16.00;;;;;;;;;;5106938;28;20244;-67
2021/11/21 10:24:08;;;;;;;30.13;14.63;;;;;;;;;;5109919;28;20222;-66
2021/11/21 10:26:37;;;;;;;29.97;15.50;;;;;;;;;;5097927;28;20231;-66
2021/11/21 10:29:20;;;;;;;28.70;15.00;;;;;;;;;;5097289;28;20228;-66
2021/11/21 10:31:48;;;;;;;31.27;16.67;;;;;;;;;;5084938;28;20690;-69
2021/11/21 10:34:16;;;;;;;33.90;15.83;;;;;;;;;;5097315;28;20206;-69
2021/11/21 10:36:44;;;;;;;30.93;15.97;;;;;;;;;;5097246;28;20296;-70
2021/11/21 10:39:12;;;;;;;32.93;16.47;;;;;;;;;;5097147;28;20226;-69
2021/11/21 10:41:44;;;;;;;31.23;16.53;;;;;;;;;;5096857;28;20987;-69
2021/11/21 10:44:15;;;;;;;31.07;16.33;;;;;;;;;;5097034;28;20237;-69
2021/11/21 10:46:44;;;;;;;34.10;17.17;;;;;;;;;;5097803;28;20277;-69
2021/11/21 10:49:27;;;;;;;34.73;16.30;;;;;;;;;;5097750;28;20268;-69
2021/11/21 10:52:16;;;;;;;35.70;17.40;;;;;;;;;;5097315;28;20206;-69
2021/11/21 10:54:46;;;;;;;37.27;17.30;;;;;;;;;;5092510;28;20253;-69
2021/11/21 10:57:16;;;;;;;31.43;16.80;;;;;;;;;;5096518;28;20672;-70
2021/11/21 10:59:49;;;;;;;43.30;18.60;;;;;;;;;;5097125;28;20703;-69
2021/11/21 11:02:19;;;;;;;40.53;18.03;;;;;;;;;;5097150;28;20285;-69
2021/11/21 11:04:59;;;;;;;33.60;16.60;;;;;;;;;;5097002;28;20243;-69
2021/11/21 11:07:27;;;;;;;39.03;18.53;;;;;;;;;;5097395;28;20206;-69
2021/11/21 11:09:56;;;;;;;45.30;19.77;;;;;;;;;;5097119;28;20229;-69
2021/11/21 11:12:25;;;;;;;41.20;19.40;;;;;;;;;;5096786;28;20244;-69
2021/11/21 11:14:56;;;;;;;37.47;19.60;;;;;;;;;;5096921;28;20232;-68
2021/11/21 11:17:25;;;;;;;37.20;18.17;;;;;;;;;;5097116;28;20208;-69
2021/11/21 11:19:56;;;;;;;38.87;18.27;;;;;;;;;;5096630;28;20637;-69
2021/11/21 11:22:24;;;;;;;43.00;20.03;;;;;;;;;;5096982;28;20212;-69
2021/11/21 11:24:56;;;;;;;37.57;19.07;;;;;;;;;;5096093;28;20213;-69
2021/11/21 11:27:35;;;;;;;39.33;19.90;;;;;;;;;;5097773;28;20569;-69
2021/11/21 11:30:03;;;;;;;40.37;19.10;;;;;;;;;;5100591;28;20228;-69
2021/11/21 11:32:36;;;;;;;40.43;19.00;;;;;;;;;;5100415;28;20210;-68
2021/11/21 11:35:04;;;;;;;47.83;22.10;;;;;;;;;;5100336;28;20567;-68
2021/11/21 11:37:40;;;;;;;45.30;20.50;;;;;;;;;;5100188;28;20875;-69
2021/11/21 11:40:28;;;;;;;49.00;21.73;;;;;;;;;;5100462;28;21024;-68
2021/11/21 11:42:58;;;;;;;40.20;20.47;;;;;;;;;;5099930;28;20483;-69
2021/11/21 11:45:40;;;;;;;45.17;21.73;;;;;;;;;;5100128;28;20712;-68
2021/11/21 11:48:26;;;;;;;36.47;19.83;;;;;;;;;;5100379;28;20230;-69
2021/11/21 11:50:55;;;;;;;44.00;21.07;;;;;;;;;;5099850;28;20209;-69
2021/11/21 11:53:33;;;;;;;41.23;20.87;;;;;;;;;;5100173;28;20198;-69
2021/11/21 11:56:11;;;;;;;41.50;21.00;;;;;;;;;;5099807;28;20312;-69
2021/11/21 11:58:45;;;;;;;44.87;24.30;;;;;;;;;;5099828;28;20316;-70
2021/11/21 12:01:14;;;;;;;39.50;20.43;;;;;;;;;;5100072;28;20204;-70
2021/11/21 12:03:42;;;;;;;50.40;23.33;;;;;;;;;;5099951;28;20296;-70
2021/11/21 12:06:11;;;;;;;40.03;21.00;;;;;;;;;;5099999;28;20206;-70
2021/11/21 12:08:43;;;;;;;40.13;20.67;;;;;;;;;;5099665;28;20551;-70
2021/11/21 12:11:11;;;;;;;43.03;19.83;;;;;;;;;;5099972;28;20486;-69
2021/11/21 12:13:45;;;;;;;36.07;18.60;;;;;;;;;;5099197;28;20205;-69
2021/11/21 12:16:17;;;;;;;38.53;17.63;;;;;;;;;;5099742;28;20509;-69
2021/11/21 12:18:58;;;;;;;42.07;19.53;;;;;;;;;;5099329;28;20911;-69
2021/11/21 12:21:43;;;;;;;31.80;17.50;;;;;;;;;;5099072;28;20466;-70
2021/11/21 12:24:21;;;;;;;31.37;17.40;;;;;;;;;;5099012;28;20284;-68
2021/11/21 12:26:49;;;;;;;39.17;18.07;;;;;;;;;;5099437;28;20627;-68
2021/11/21 12:29:37;;;;;;;38.23;17.47;;;;;;;;;;5099245;28;20221;-68
2021/11/21 12:32:24;;;;;;;33.37;16.20;;;;;;;;;;5099429;28;20208;-69
2021/11/21 12:34:52;;;;;;;42.20;17.87;;;;;;;;;;5099033;28;20216;-65
2021/11/21 12:37:22;;;;;;;30.10;16.87;;;;;;;;;;5105707;28;20313;-65
2021/11/21 12:39:51;;;;;;;30.33;15.97;;;;;;;;;;5107481;28;20300;-66
2021/11/21 12:42:24;;;;;;;32.40;16.90;;;;;;;;;;5107083;28;20212;-72
2021/11/21 12:45:04;;;;;;;29.60;16.00;;;;;;;;;;5105441;28;20197;-74
2021/11/21 12:47:34;;;;;;;33.37;16.57;;;;;;;;;;5105122;28;20511;-74
2021/11/21 12:50:02;;;;;;;24.97;13.70;;;;;;;;;;5099948;28;20305;-75
2021/11/21 12:52:30;;;;;;;25.27;14.30;;;;;;;;;;5098705;28;20206;-73
2021/11/21 12:54:57;;;;;;;31.07;15.37;;;;;;;;;;5098715;28;20231;-74
2021/11/21 12:57:27;;;;;;;29.47;15.33;;;;;;;;;;5098377;28;20253;-69
2021/11/21 12:59:56;;;;;;;29.43;14.77;;;;;;;;;;5098614;28;20225;-67
2021/11/21 13:02:25;;;;;;;26.60;13.67;;;;;;;;;;5106428;28;20194;-68
2021/11/21 13:04:57;;;;;;;24.17;13.10;;;;;;;;;;5104492;28;20696;-69
2021/11/21 13:07:34;;;;;;;20.93;12.73;;;;;;;;;;5105564;28;20556;-69
2021/11/21 13:10:05;;;;;;;27.53;17.53;;;;;;;;;;5106642;28;20232;-68
2021/11/21 13:12:34;;;;;;;21.53;12.50;;;;;;;;;;5105478;28;20207;-68
2021/11/21 13:15:03;;;;;;;25.53;13.33;;;;;;;;;;5099919;28;20569;-66
2021/11/21 13:17:31;;;;;;;21.63;13.03;;;;;;;;;;5099005;28;20225;-65
2021/11/21 13:20:06;;;;;;;24.27;13.37;;;;;;;;;;5098429;28;20228;-66
2021/11/21 13:22:48;;;;;;;23.87;13.30;;;;;;;;;;5098379;28;20208;-67
2021/11/21 13:25:35;;;;;;;24.03;12.70;;;;;;;;;;5085130;28;20564;-69
2021/11/21 13:28:22;;;;;;;26.17;13.27;;;;;;;;;;5097392;28;20577;-72
2021/11/21 13:30:51;;;;;;;22.03;12.70;;;;;;;;;;5098010;28;20685;-70
2021/11/21 13:33:20;;;;;;;30.10;15.23;;;;;;;;;;5098267;28;20209;-70
2021/11/21 13:35:52;;;;;;;22.53;13.57;;;;;;;;;;5097669;28;20233;-71
2021/11/21 13:38:21;;;;;;;25.13;14.17;;;;;;;;;;5097988;28;20231;-70
2021/11/21 13:40:49;;;;;;;26.30;14.03;;;;;;;;;;5097732;28;20211;-70
2021/11/21 13:43:17;;;;;;;28.10;14.23;;;;;;;;;;5097797;28;20304;-70
2021/11/21 13:45:45;;;;;;;24.93;13.33;;;;;;;;;;5098063;28;20288;-71
2021/11/21 13:48:30;;;;;;;25.00;14.53;;;;;;;;;;5097919;28;20226;-70
2021/11/21 13:51:00;;;;;;;30.03;14.57;;;;;;;;;;5097269;28;20268;-70
2021/11/21 13:53:39;;;;;;;25.80;14.50;;;;;;;;;;5098333;28;20202;-70
2021/11/21 13:56:08;;;;;;;24.17;13.13;;;;;;;;;;5098018;28;20288;-70
2021/11/21 13:58:36;;;;;;;24.03;13.17;;;;;;;;;;5097449;28;20225;-70
2021/11/21 14:01:07;;;;;;;25.87;14.63;;;;;;;;;;5097815;28;20288;-71
2021/11/21 14:03:36;;;;;;;21.73;12.40;;;;;;;;;;5097485;28;20809;-71
2021/11/21 14:06:10;;;;;;;23.43;13.10;;;;;;;;;;5097353;28;20646;-70
2021/11/21 14:08:45;;;;;;;22.60;13.47;;;;;;;;;;5097537;28;20225;-72
2021/11/21 14:11:13;;;;;;;23.83;13.80;;;;;;;;;;5097438;28;20205;-70
2021/11/21 14:13:54;;;;;;;24.50;12.90;;;;;;;;;;5097645;28;20205;-70
2021/11/21 14:16:22;;;;;;;29.80;16.33;;;;;;;;;;5097361;28;20275;-69
2021/11/21 14:18:51;;;;;;;26.50;14.50;;;;;;;;;;5097638;28;20275;-69
2021/11/21 14:21:22;;;;;;;26.90;14.50;;;;;;;;;;5097326;28;20806;-69
2021/11/21 14:23:54;;;;;;;24.43;14.27;;;;;;;;;;5096198;28;20205;-70
2021/11/21 14:26:22;;;;;;;27.37;15.47;;;;;;;;;;5097411;28;20296;-70
2021/11/21 14:29:00;;;;;;;28.00;13.77;;;;;;;;;;5097384;28;20464;-70
2021/11/21 14:31:29;;;;;;;28.03;14.30;;;;;;;;;;5097535;28;20542;-70